Time;durP1;ratioP1;P1;durP2;ratioP2;P2;SDS_P1;SDS_P2;PMS_P1;PMS_P2;Temp;Humidity;BMP_temperature;BMP_pressure;BME280_temperature;BME280_humidity;BME280_pressure;Samples;Min_cycle;Max_cycle;Signal;HPM_P1;HPM_P2
2022/11/18 00:00:09;;;;;;;22.90;13.88;;;;;;;;;;6276947;22;20463;-82
2022/11/18 00:02:35;;;;;;;24.15;13.30;;;;;;;;;;6249634;22;20003;-82
2022/11/18 00:05:01;;;;;;;24.67;12.80;;;;;;;;;;6249737;22;20470;-82
2022/11/18 00:07:27;;;;;;;24.17;13.30;;;;;;;;;;6277023;22;20002;-83
2022/11/18 00:09:54;;;;;;;23.40;12.70;;;;;;;;;;6250258;22;19999;-82
2022/11/18 00:15:05;;;;;;;23.00;12.82;;;;;;;;;;6295853;22;20355;-82
2022/11/18 00:17:31;;;;;;;27.75;12.70;;;;;;;;;;6251745;22;20056;-82
2022/11/18 00:19:57;;;;;;;21.17;12.55;;;;;;;;;;6277611;22;20137;-82
2022/11/18 00:22:23;;;;;;;20.60;12.18;;;;;;;;;;6277887;22;20004;-81
2022/11/18 00:24:49;;;;;;;23.45;12.88;;;;;;;;;;6277129;22;20000;-81
2022/11/18 00:27:15;;;;;;;22.13;13.00;;;;;;;;;;6277506;22;19996;-81
2022/11/18 00:29:41;;;;;;;24.20;12.88;;;;;;;;;;6277043;22;20030;-81
2022/11/18 00:32:08;;;;;;;24.02;13.52;;;;;;;;;;6248213;22;19996;-81
2022/11/18 00:34:34;;;;;;;23.73;12.68;;;;;;;;;;6248143;22;20325;-81
2022/11/18 00:37:00;;;;;;;23.48;13.18;;;;;;;;;;6275852;22;20339;-82
2022/11/18 00:39:26;;;;;;;23.80;13.00;;;;;;;;;;6276400;22;20051;-82
2022/11/18 00:44:37;;;;;;;22.08;12.90;;;;;;;;;;6276773;22;20022;-82
2022/11/18 00:47:03;;;;;;;24.25;12.85;;;;;;;;;;6275933;22;20383;-82
2022/11/18 00:49:29;;;;;;;26.30;13.40;;;;;;;;;;6249171;22;20571;-82
2022/11/18 00:51:55;;;;;;;26.77;14.80;;;;;;;;;;6277019;22;20058;-82
2022/11/18 00:54:22;;;;;;;24.00;12.85;;;;;;;;;;6249052;22;20061;-82
2022/11/18 00:56:48;;;;;;;26.98;13.70;;;;;;;;;;6248540;22;20082;-82
2022/11/18 00:59:15;;;;;;;23.73;12.80;;;;;;;;;;6248996;22;20058;-82
2022/11/18 01:01:41;;;;;;;22.35;12.18;;;;;;;;;;6275958;22;20026;-82
2022/11/18 01:04:07;;;;;;;26.08;13.82;;;;;;;;;;6276593;22;20340;-82
2022/11/18 01:06:33;;;;;;;21.60;13.57;;;;;;;;;;6250396;22;20006;-81
2022/11/18 01:08:59;;;;;;;23.33;13.20;;;;;;;;;;6278329;22;20079;-82
2022/11/18 01:14:10;;;;;;;28.90;13.57;;;;;;;;;;6277935;22;20019;-82
2022/11/18 01:16:35;;;;;;;25.85;13.50;;;;;;;;;;6278359;22;20034;-83
2022/11/18 01:19:01;;;;;;;23.42;12.90;;;;;;;;;;6277673;22;19999;-82
2022/11/18 01:21:28;;;;;;;26.58;13.18;;;;;;;;;;6277647;22;20027;-82
2022/11/18 01:23:54;;;;;;;25.70;13.45;;;;;;;;;;6278232;22;20292;-82
2022/11/18 01:26:20;;;;;;;24.35;12.15;;;;;;;;;;6249897;22;20000;-82
2022/11/18 01:28:46;;;;;;;27.65;13.75;;;;;;;;;;6277334;22;20084;-81
2022/11/18 01:31:14;;;;;;;27.92;13.80;;;;;;;;;;6278185;22;20400;-82
2022/11/18 01:33:40;;;;;;;25.92;12.68;;;;;;;;;;6251371;22;20031;-82
2022/11/18 01:36:14;;;;;;;27.80;13.15;;;;;;;;;;6277998;22;20003;-82
2022/11/18 01:38:40;;;;;;;30.35;12.55;;;;;;;;;;6278215;22;20443;-82
2022/11/18 01:41:06;;;;;;;32.90;14.73;;;;;;;;;;6278263;22;20007;-82
2022/11/18 01:43:52;;;;;;;32.75;13.27;;;;;;;;;;6278004;22;20033;-82
2022/11/18 01:46:19;;;;;;;28.42;12.75;;;;;;;;;;6250970;22;20015;-83
2022/11/18 01:48:46;;;;;;;32.38;13.98;;;;;;;;;;6277690;22;20053;-82
2022/11/18 01:51:15;;;;;;;29.40;13.80;;;;;;;;;;6277516;22;20339;-82
2022/11/18 01:53:42;;;;;;;29.05;12.13;;;;;;;;;;6277495;22;20019;-83
2022/11/18 01:56:11;;;;;;;27.60;14.45;;;;;;;;;;6278346;22;20014;-82
2022/11/18 01:58:40;;;;;;;32.35;13.20;;;;;;;;;;6277939;22;20011;-81
2022/11/18 02:01:07;;;;;;;32.17;13.80;;;;;;;;;;6277310;22;20436;-81
2022/11/18 02:03:33;;;;;;;31.95;15.10;;;;;;;;;;6250259;22;20003;-82
2022/11/18 02:06:00;;;;;;;27.20;13.15;;;;;;;;;;6278004;22;20006;-83
2022/11/18 02:08:27;;;;;;;28.88;14.25;;;;;;;;;;6250635;22;20054;-84
2022/11/18 02:10:53;;;;;;;30.50;13.82;;;;;;;;;;6250757;22;20010;-83
2022/11/18 02:13:19;;;;;;;33.97;15.63;;;;;;;;;;6250366;22;20000;-83
2022/11/18 02:15:50;;;;;;;33.67;14.98;;;;;;;;;;6276748;22;20378;-83
2022/11/18 02:18:18;;;;;;;33.03;16.13;;;;;;;;;;6276878;22;20010;-82
2022/11/18 02:20:46;;;;;;;28.77;14.13;;;;;;;;;;6248927;22;20036;-82
2022/11/18 02:23:35;;;;;;;35.28;13.95;;;;;;;;;;6249481;22;20034;-82
2022/11/18 02:26:25;;;;;;;32.30;14.48;;;;;;;;;;6277295;22;20266;-82
2022/11/18 02:29:09;;;;;;;28.13;12.55;;;;;;;;;;6277550;22;20546;-82
2022/11/18 02:31:48;;;;;;;34.13;14.75;;;;;;;;;;6277101;22;20388;-83
2022/11/18 02:34:17;;;;;;;32.45;14.57;;;;;;;;;;6249471;22;20387;-83
2022/11/18 02:36:47;;;;;;;27.77;13.70;;;;;;;;;;6276399;22;20006;-83
2022/11/18 02:39:17;;;;;;;35.30;17.35;;;;;;;;;;6277892;22;20493;-82
2022/11/18 02:41:43;;;;;;;34.70;16.05;;;;;;;;;;6250755;22;20008;-82
2022/11/18 02:44:12;;;;;;;28.83;14.32;;;;;;;;;;6276133;22;20082;-82
2022/11/18 02:46:39;;;;;;;26.08;13.93;;;;;;;;;;6276729;22;19996;-83
2022/11/18 02:49:08;;;;;;;29.67;14.10;;;;;;;;;;6276970;22;20082;-82
2022/11/18 02:51:35;;;;;;;29.23;14.18;;;;;;;;;;6249970;22;20031;-83
2022/11/18 02:54:04;;;;;;;29.25;14.80;;;;;;;;;;6250197;22;20003;-83
2022/11/18 02:56:32;;;;;;;29.33;14.10;;;;;;;;;;6249927;22;20468;-83
2022/11/18 02:58:58;;;;;;;29.27;14.82;;;;;;;;;;6277164;22;20049;-83
2022/11/18 03:01:28;;;;;;;27.17;14.13;;;;;;;;;;6250364;22;20000;-82
2022/11/18 03:03:54;;;;;;;32.40;15.85;;;;;;;;;;6249353;22;20505;-83
2022/11/18 03:06:20;;;;;;;30.73;14.93;;;;;;;;;;6276763;22;20367;-83
2022/11/18 03:09:10;;;;;;;32.55;14.77;;;;;;;;;;6249493;22;20026;-83
2022/11/18 03:11:43;;;;;;;27.92;14.23;;;;;;;;;;6231204;22;20006;-83
2022/11/18 03:14:18;;;;;;;26.77;13.48;;;;;;;;;;6276673;22;20030;-84
2022/11/18 03:17:06;;;;;;;32.33;14.40;;;;;;;;;;6277366;22;20554;-83
2022/11/18 03:19:39;;;;;;;31.02;15.82;;;;;;;;;;6277301;22;20450;-83
2022/11/18 03:22:09;;;;;;;29.45;14.30;;;;;;;;;;6277223;22;20049;-83
2022/11/18 03:24:39;;;;;;;34.55;15.65;;;;;;;;;;6277874;22;20455;-84
2022/11/18 03:27:18;;;;;;;26.27;12.80;;;;;;;;;;6276940;22;20028;-84
2022/11/18 03:30:04;;;;;;;27.52;12.98;;;;;;;;;;6249183;22;20003;-84
2022/11/18 03:32:32;;;;;;;30.75;13.70;;;;;;;;;;6249344;22;20386;-84
2022/11/18 03:35:00;;;;;;;24.98;13.35;;;;;;;;;;6277649;22;20007;-84
2022/11/18 03:37:26;;;;;;;27.92;13.43;;;;;;;;;;6286956;22;20003;-84
2022/11/18 03:39:54;;;;;;;25.35;13.07;;;;;;;;;;6304137;22;20060;-84
2022/11/18 03:42:24;;;;;;;28.02;12.60;;;;;;;;;;6300198;22;20347;-83
2022/11/18 03:44:52;;;;;;;28.48;13.77;;;;;;;;;;6277328;22;20019;-83
2022/11/18 03:47:24;;;;;;;24.25;12.23;;;;;;;;;;6276094;22;20083;-83
2022/11/18 03:49:52;;;;;;;26.08;12.93;;;;;;;;;;6248335;22;19999;-83
2022/11/18 03:52:20;;;;;;;25.85;12.75;;;;;;;;;;6248054;22;20004;-83
2022/11/18 03:54:47;;;;;;;28.10;12.23;;;;;;;;;;6275080;22;20000;-83
2022/11/18 03:57:16;;;;;;;29.33;13.48;;;;;;;;;;6247524;22;20004;-83
2022/11/18 03:59:51;;;;;;;28.10;12.68;;;;;;;;;;6275451;22;20312;-83
2022/11/18 04:02:19;;;;;;;29.33;13.80;;;;;;;;;;6248426;22;20023;-83
2022/11/18 04:04:47;;;;;;;27.42;12.75;;;;;;;;;;6248757;22;20011;-83
2022/11/18 04:07:22;;;;;;;28.90;12.32;;;;;;;;;;6248957;22;19999;-84
2022/11/18 04:09:55;;;;;;;28.95;12.13;;;;;;;;;;6249138;22;19999;-84
2022/11/18 04:12:22;;;;;;;28.70;13.05;;;;;;;;;;6276153;22;20257;-84
2022/11/18 04:14:51;;;;;;;26.10;12.88;;;;;;;;;;6249048;22;20004;-83
2022/11/18 04:17:19;;;;;;;28.08;12.50;;;;;;;;;;6248999;22;20012;-83
2022/11/18 04:19:45;;;;;;;32.13;12.38;;;;;;;;;;6276058;22;20336;-83
2022/11/18 04:22:11;;;;;;;30.77;12.55;;;;;;;;;;6276658;22;20030;-84
2022/11/18 04:24:37;;;;;;;26.30;12.43;;;;;;;;;;6276486;22;20003;-83
2022/11/18 04:27:04;;;;;;;30.90;13.23;;;;;;;;;;6274852;22;20359;-83
2022/11/18 04:29:30;;;;;;;30.13;13.63;;;;;;;;;;6275649;22;20428;-83
2022/11/18 04:31:56;;;;;;;27.92;12.95;;;;;;;;;;6249518;22;20007;-84
2022/11/18 04:34:22;;;;;;;30.88;13.13;;;;;;;;;;6275548;22;20087;-83
2022/11/18 04:36:48;;;;;;;26.52;13.23;;;;;;;;;;6276911;22;20345;-83
2022/11/18 04:39:16;;;;;;;29.23;13.57;;;;;;;;;;6277170;22;20004;-84
2022/11/18 04:41:55;;;;;;;29.55;13.23;;;;;;;;;;6277590;22;20483;-83
2022/11/18 04:44:23;;;;;;;29.55;12.77;;;;;;;;;;6277748;22;20049;-83
2022/11/18 04:46:49;;;;;;;27.13;12.10;;;;;;;;;;6252047;22;20003;-84
2022/11/18 04:49:16;;;;;;;27.23;12.25;;;;;;;;;;6279389;22;20047;-84
2022/11/18 04:51:42;;;;;;;28.27;13.20;;;;;;;;;;6251456;22;20031;-83
2022/11/18 04:54:08;;;;;;;26.83;11.98;;;;;;;;;;6279344;22;20019;-84
2022/11/18 04:56:34;;;;;;;26.20;12.35;;;;;;;;;;6252074;22;20053;-85
2022/11/18 04:59:01;;;;;;;27.92;11.80;;;;;;;;;;6277695;22;20080;-84
2022/11/18 05:01:28;;;;;;;24.83;11.35;;;;;;;;;;6278213;22;20021;-85
2022/11/18 05:03:54;;;;;;;25.98;11.50;;;;;;;;;;6277778;22;20015;-84
2022/11/18 05:06:20;;;;;;;27.90;12.70;;;;;;;;;;6279213;22;20032;-85
2022/11/18 05:08:46;;;;;;;24.98;11.85;;;;;;;;;;6280151;22;20008;-85
2022/11/18 05:13:57;;;;;;;25.27;12.40;;;;;;;;;;6280220;22;20135;-85
2022/11/18 05:16:23;;;;;;;24.70;11.30;;;;;;;;;;6282110;22;19999;-85
2022/11/18 05:18:49;;;;;;;24.85;10.50;;;;;;;;;;6279511;22;20003;-84
2022/11/18 05:21:16;;;;;;;27.15;11.63;;;;;;;;;;6278863;22;20003;-85
2022/11/18 05:23:42;;;;;;;25.65;10.90;;;;;;;;;;6249246;22;20447;-84
2022/11/18 05:26:09;;;;;;;28.92;11.07;;;;;;;;;;6250731;22;20340;-84
2022/11/18 05:28:35;;;;;;;23.58;10.68;;;;;;;;;;6277708;22;19996;-84
2022/11/18 05:31:08;;;;;;;25.38;10.73;;;;;;;;;;6250842;22;20010;-84
2022/11/18 05:33:34;;;;;;;25.38;10.55;;;;;;;;;;6250900;22;20085;-84
2022/11/18 05:36:04;;;;;;;25.25;10.93;;;;;;;;;;6278122;22;19996;-84
2022/11/18 05:38:31;;;;;;;25.00;10.45;;;;;;;;;;6278694;22;20440;-84
2022/11/18 05:40:57;;;;;;;23.27;10.82;;;;;;;;;;6251628;22;20043;-84
2022/11/18 05:43:23;;;;;;;31.02;12.60;;;;;;;;;;6277627;22;20020;-84
2022/11/18 05:45:50;;;;;;;26.20;12.77;;;;;;;;;;6250885;22;20054;-84
2022/11/18 05:48:17;;;;;;;27.10;11.90;;;;;;;;;;6277081;22;19996;-84
2022/11/18 05:50:45;;;;;;;24.63;12.30;;;;;;;;;;6249692;22;20300;-84
2022/11/18 05:53:11;;;;;;;32.97;13.02;;;;;;;;;;6278819;22;20049;-84
2022/11/18 05:55:43;;;;;;;29.08;13.55;;;;;;;;;;6278755;22;20007;-84
2022/11/18 05:58:10;;;;;;;31.33;13.82;;;;;;;;;;6277962;22;20003;-84
2022/11/18 06:00:36;;;;;;;30.67;13.10;;;;;;;;;;6278807;22;20011;-84
2022/11/18 06:03:04;;;;;;;29.80;13.82;;;;;;;;;;6277763;22;20082;-84
2022/11/18 06:05:30;;;;;;;31.52;14.43;;;;;;;;;;6280271;22;20428;-84
2022/11/18 06:07:56;;;;;;;31.23;14.80;;;;;;;;;;6279700;22;20003;-84
2022/11/18 06:10:25;;;;;;;30.20;13.60;;;;;;;;;;6253543;22;20000;-85
2022/11/18 06:12:52;;;;;;;27.77;13.38;;;;;;;;;;6280525;22;20055;-84
2022/11/18 06:15:20;;;;;;;34.58;14.27;;;;;;;;;;6285902;22;20010;-84
2022/11/18 06:17:49;;;;;;;36.35;13.77;;;;;;;;;;6293328;22;20038;-84
2022/11/18 06:20:17;;;;;;;35.22;14.35;;;;;;;;;;6266549;22;20004;-83
2022/11/18 06:22:43;;;;;;;31.05;13.75;;;;;;;;;;6294021;22;20007;-84
2022/11/18 06:25:09;;;;;;;34.85;15.02;;;;;;;;;;6261596;22;20053;-83
2022/11/18 06:27:35;;;;;;;35.42;14.85;;;;;;;;;;6279807;22;20383;-83
2022/11/18 06:30:01;;;;;;;28.70;12.77;;;;;;;;;;6279905;22;20000;-83
2022/11/18 06:32:27;;;;;;;27.95;13.13;;;;;;;;;;6252780;22;20021;-83
2022/11/18 06:34:53;;;;;;;30.70;13.65;;;;;;;;;;6251472;22;20004;-83
2022/11/18 06:37:20;;;;;;;30.25;14.15;;;;;;;;;;6251858;22;20010;-84
2022/11/18 06:39:46;;;;;;;29.92;14.50;;;;;;;;;;6253167;22;20003;-83
2022/11/18 06:43:37;;;;;;;32.97;13.80;;;;;;;;;;6279534;22;20038;-83
2022/11/18 06:45:02;;;;;;;31.25;12.68;;;;;;;;;;6280926;22;20027;-83
2022/11/18 06:47:28;;;;;;;32.80;13.45;;;;;;;;;;6295818;22;20004;-82
2022/11/18 06:49:54;;;;;;;33.92;13.63;;;;;;;;;;6294946;22;20070;-82
2022/11/18 06:52:21;;;;;;;25.17;11.63;;;;;;;;;;6296798;22;20003;-83
2022/11/18 06:54:47;;;;;;;34.08;13.30;;;;;;;;;;6286965;22;20000;-83
2022/11/18 06:57:13;;;;;;;26.05;12.40;;;;;;;;;;6280656;22;19995;-83
2022/11/18 06:59:39;;;;;;;25.38;10.93;;;;;;;;;;6270593;22;19995;-83
2022/11/18 07:02:05;;;;;;;28.42;11.90;;;;;;;;;;6303175;22;19988;-85
2022/11/18 07:04:33;;;;;;;25.27;10.90;;;;;;;;;;6255665;22;20016;-83
2022/11/18 07:06:59;;;;;;;29.25;12.05;;;;;;;;;;6250526;22;20428;-82
2022/11/18 07:09:25;;;;;;;24.80;10.68;;;;;;;;;;6279305;22;20007;-84
2022/11/18 07:11:51;;;;;;;27.63;10.77;;;;;;;;;;6279020;22;20023;-83
2022/11/18 07:14:17;;;;;;;26.23;12.10;;;;;;;;;;6278923;22;20485;-82
2022/11/18 07:16:43;;;;;;;32.45;15.52;;;;;;;;;;6251324;22;20004;-83
2022/11/18 07:19:10;;;;;;;34.42;18.75;;;;;;;;;;6278871;22;20055;-83
2022/11/18 07:21:37;;;;;;;28.80;14.32;;;;;;;;;;6279168;22;19999;-83
2022/11/18 07:24:05;;;;;;;25.02;11.82;;;;;;;;;;6278157;22;20003;-83
2022/11/18 07:26:31;;;;;;;22.60;10.95;;;;;;;;;;6277813;22;20026;-83
2022/11/18 07:28:57;;;;;;;27.58;11.27;;;;;;;;;;6279382;22;19995;-82
2022/11/18 07:31:23;;;;;;;28.13;10.82;;;;;;;;;;6252155;22;20019;-83
2022/11/18 07:33:52;;;;;;;34.58;18.42;;;;;;;;;;6252794;22;20479;-83
2022/11/18 07:36:19;;;;;;;31.40;15.55;;;;;;;;;;6253501;22;20007;-83
2022/11/18 07:38:46;;;;;;;36.30;19.30;;;;;;;;;;6280426;22;20057;-83
2022/11/18 07:41:22;;;;;;;35.95;21.50;;;;;;;;;;6280017;22;20003;-83
2022/11/18 07:43:49;;;;;;;27.55;13.27;;;;;;;;;;6281155;22;20000;-83
2022/11/18 07:46:16;;;;;;;24.58;10.57;;;;;;;;;;6282517;22;20003;-83
2022/11/18 07:48:44;;;;;;;28.25;11.18;;;;;;;;;;6280874;22;19996;-82
2022/11/18 07:51:11;;;;;;;27.73;11.48;;;;;;;;;;6280205;22;19996;-83
2022/11/18 07:53:38;;;;;;;23.80;10.50;;;;;;;;;;6279991;22;20078;-82
2022/11/18 07:56:04;;;;;;;26.00;10.48;;;;;;;;;;6280360;22;20003;-84
2022/11/18 07:58:30;;;;;;;24.58;10.35;;;;;;;;;;6280157;22;19999;-84
2022/11/18 08:00:57;;;;;;;19.88;8.77;;;;;;;;;;6254316;22;19999;-84
2022/11/18 08:03:26;;;;;;;18.90;9.60;;;;;;;;;;6280828;22;20003;-84
2022/11/18 08:05:53;;;;;;;23.90;10.57;;;;;;;;;;6281388;22;20390;-84
2022/11/18 08:08:19;;;;;;;22.02;9.32;;;;;;;;;;6253619;22;20402;-83
2022/11/18 08:10:45;;;;;;;23.73;10.07;;;;;;;;;;6253537;22;19995;-84
2022/11/18 08:13:11;;;;;;;18.10;8.45;;;;;;;;;;6279502;22;20027;-83
2022/11/18 08:15:40;;;;;;;24.42;9.65;;;;;;;;;;6279401;22;20394;-83
2022/11/18 08:18:06;;;;;;;23.52;11.13;;;;;;;;;;6251491;22;20086;-82
2022/11/18 08:20:33;;;;;;;21.20;9.10;;;;;;;;;;6278573;22;20007;-83
2022/11/18 08:22:59;;;;;;;22.25;10.52;;;;;;;;;;6278344;22;20004;-82
2022/11/18 08:25:25;;;;;;;21.15;9.00;;;;;;;;;;6277593;22;20010;-82
2022/11/18 08:27:51;;;;;;;26.25;10.30;;;;;;;;;;6278682;22;19995;-82
2022/11/18 08:30:18;;;;;;;23.90;9.05;;;;;;;;;;6278888;22;20075;-82
2022/11/18 08:32:44;;;;;;;23.50;9.02;;;;;;;;;;6277702;22;20000;-84
2022/11/18 08:35:10;;;;;;;23.83;9.95;;;;;;;;;;6278706;22;20027;-82
2022/11/18 08:37:36;;;;;;;22.35;10.07;;;;;;;;;;6251232;22;20436;-82
2022/11/18 08:40:02;;;;;;;22.88;9.68;;;;;;;;;;6278270;22;20003;-82
2022/11/18 08:42:27;;;;;;;22.35;10.07;;;;;;;;;;6249926;22;20003;-82
2022/11/18 08:44:53;;;;;;;21.55;10.25;;;;;;;;;;6277361;22;20011;-82
2022/11/18 08:47:20;;;;;;;27.45;10.80;;;;;;;;;;6250914;22;20004;-82
2022/11/18 08:49:46;;;;;;;22.30;10.48;;;;;;;;;;6278837;22;20010;-82
2022/11/18 08:52:12;;;;;;;29.90;11.60;;;;;;;;;;6278362;22;20419;-82
2022/11/18 08:54:38;;;;;;;26.75;11.23;;;;;;;;;;6278595;22;20106;-82
2022/11/18 08:57:04;;;;;;;24.70;10.10;;;;;;;;;;6278068;22;20405;-82
2022/11/18 08:59:31;;;;;;;25.10;10.63;;;;;;;;;;6253337;22;20008;-82
2022/11/18 09:01:57;;;;;;;23.13;9.85;;;;;;;;;;6261344;22;20516;-82
2022/11/18 09:04:23;;;;;;;27.67;13.63;;;;;;;;;;6280631;22;20053;-83
2022/11/18 09:06:49;;;;;;;28.40;11.32;;;;;;;;;;6252457;22;20003;-82
2022/11/18 09:09:15;;;;;;;30.05;11.48;;;;;;;;;;6278817;22;20006;-82
2022/11/18 09:11:41;;;;;;;22.55;9.32;;;;;;;;;;6278065;22;20032;-82
2022/11/18 09:14:10;;;;;;;17.15;8.55;;;;;;;;;;6278290;22;20004;-82
2022/11/18 09:16:36;;;;;;;19.52;8.80;;;;;;;;;;6278838;22;20011;-82
2022/11/18 09:19:03;;;;;;;20.80;8.50;;;;;;;;;;6278904;22;20078;-81
2022/11/18 09:21:29;;;;;;;17.48;7.70;;;;;;;;;;6278860;22;20087;-82
2022/11/18 09:23:56;;;;;;;16.15;7.05;;;;;;;;;;6277468;22;20495;-82
2022/11/18 09:26:23;;;;;;;15.70;7.45;;;;;;;;;;6279752;22;20004;-82
2022/11/18 09:28:49;;;;;;;16.98;8.45;;;;;;;;;;6280425;22;19996;-82
2022/11/18 09:31:17;;;;;;;16.52;8.35;;;;;;;;;;6281038;22;20436;-82
2022/11/18 09:33:43;;;;;;;20.85;8.75;;;;;;;;;;6253326;22;20004;-82
2022/11/18 09:36:18;;;;;;;17.05;8.02;;;;;;;;;;6253378;22;20530;-82
2022/11/18 09:38:44;;;;;;;19.67;9.43;;;;;;;;;;6280489;22;20000;-82
2022/11/18 09:41:23;;;;;;;17.10;9.07;;;;;;;;;;6279959;22;20031;-82
2022/11/18 09:43:49;;;;;;;17.17;8.57;;;;;;;;;;6280214;22;20015;-82
2022/11/18 09:46:18;;;;;;;22.90;9.65;;;;;;;;;;6280558;22;20015;-82
2022/11/18 09:51:32;;;;;;;18.08;8.40;;;;;;;;;;6281111;22;20458;-82
2022/11/18 09:53:59;;;;;;;22.17;9.95;;;;;;;;;;6253489;22;20055;-83
2022/11/18 09:56:26;;;;;;;20.35;9.57;;;;;;;;;;6280440;22;20014;-82
2022/11/18 09:58:53;;;;;;;22.58;10.48;;;;;;;;;;6279825;22;20057;-82
2022/11/18 10:01:20;;;;;;;23.17;10.75;;;;;;;;;;6280180;22;20378;-82
2022/11/18 10:03:46;;;;;;;17.75;8.10;;;;;;;;;;6280001;22;20000;-83
2022/11/18 10:06:22;;;;;;;19.85;9.23;;;;;;;;;;6279988;22;20309;-82
2022/11/18 10:09:00;;;;;;;19.85;8.85;;;;;;;;;;6279194;22;20435;-82
2022/11/18 10:11:31;;;;;;;18.08;9.70;;;;;;;;;;6279114;22;20000;-82
2022/11/18 10:13:57;;;;;;;18.13;8.05;;;;;;;;;;6279061;22;20004;-82
2022/11/18 10:16:35;;;;;;;15.50;7.65;;;;;;;;;;6279704;22;20386;-82
2022/11/18 10:19:09;;;;;;;18.05;8.32;;;;;;;;;;6297603;22;19996;-84
2022/11/18 10:21:46;;;;;;;14.80;6.93;;;;;;;;;;6298107;22;20004;-82
2022/11/18 10:24:16;;;;;;;15.82;6.85;;;;;;;;;;6255938;22;20012;-82
2022/11/18 10:26:42;;;;;;;16.08;6.93;;;;;;;;;;6281969;22;20382;-82
2022/11/18 10:29:09;;;;;;;15.48;7.28;;;;;;;;;;6253523;22;20321;-82
2022/11/18 10:31:39;;;;;;;12.13;6.10;;;;;;;;;;6280258;22;20043;-83
2022/11/18 10:34:06;;;;;;;17.45;7.38;;;;;;;;;;6252354;22;20004;-82
2022/11/18 10:36:33;;;;;;;12.38;6.50;;;;;;;;;;6280386;22;20442;-83
2022/11/18 10:39:15;;;;;;;11.40;6.78;;;;;;;;;;6280775;22;20004;-83
2022/11/18 10:41:51;;;;;;;17.73;7.32;;;;;;;;;;6279500;22;20004;-82
2022/11/18 10:44:35;;;;;;;15.30;7.00;;;;;;;;;;6278751;22;20030;-82
2022/11/18 10:47:20;;;;;;;14.88;7.03;;;;;;;;;;6282645;22;19995;-83
2022/11/18 10:49:46;;;;;;;11.23;6.00;;;;;;;;;;6254662;22;19999;-82
2022/11/18 10:52:13;;;;;;;15.38;5.85;;;;;;;;;;6279392;22;20041;-81
2022/11/18 10:54:40;;;;;;;13.63;6.57;;;;;;;;;;6257578;22;20027;-82
2022/11/18 10:57:06;;;;;;;13.95;6.90;;;;;;;;;;6279300;22;20035;-82
2022/11/18 10:59:33;;;;;;;15.55;7.40;;;;;;;;;;6278732;22;20010;-82
2022/11/18 11:02:14;;;;;;;14.45;6.60;;;;;;;;;;6251308;22;20008;-82
2022/11/18 11:04:41;;;;;;;14.30;5.88;;;;;;;;;;6278597;22;20325;-82
2022/11/18 11:07:26;;;;;;;12.23;6.00;;;;;;;;;;6251603;22;20031;-82
2022/11/18 11:09:59;;;;;;;13.25;5.90;;;;;;;;;;6251712;22;20011;-82
2022/11/18 11:12:27;;;;;;;12.55;5.70;;;;;;;;;;6278161;22;20339;-82
2022/11/18 11:14:55;;;;;;;8.40;5.20;;;;;;;;;;6278357;22;20340;-82
2022/11/18 11:17:27;;;;;;;9.32;4.95;;;;;;;;;;6278882;22;20015;-83
2022/11/18 11:20:06;;;;;;;13.43;6.30;;;;;;;;;;6278277;22;20423;-82
2022/11/18 11:22:32;;;;;;;10.70;6.20;;;;;;;;;;6277729;22;20010;-82
2022/11/18 11:24:58;;;;;;;11.88;5.45;;;;;;;;;;6277450;22;20003;-83
2022/11/18 11:27:27;;;;;;;11.50;6.35;;;;;;;;;;6278409;22;20003;-83
2022/11/18 11:30:12;;;;;;;10.60;6.25;;;;;;;;;;6277538;22;20025;-83
2022/11/18 11:32:56;;;;;;;12.98;6.55;;;;;;;;;;6276727;22;20006;-82
2022/11/18 11:35:29;;;;;;;13.05;6.05;;;;;;;;;;6278237;22;20000;-82
2022/11/18 11:38:15;;;;;;;11.57;6.20;;;;;;;;;;6276645;22;19995;-82
2022/11/18 11:40:51;;;;;;;13.18;5.82;;;;;;;;;;6250220;22;20007;-82
2022/11/18 11:43:34;;;;;;;14.00;6.50;;;;;;;;;;6251039;22;20003;-82
2022/11/18 11:46:08;;;;;;;15.15;6.35;;;;;;;;;;6278025;22;20008;-82
2022/11/18 11:48:42;;;;;;;13.80;6.53;;;;;;;;;;6251781;22;20428;-82
2022/11/18 11:51:11;;;;;;;13.90;6.80;;;;;;;;;;6250554;22;20000;-83
2022/11/18 11:53:49;;;;;;;12.90;7.50;;;;;;;;;;6278039;22;20063;-82
2022/11/18 11:56:18;;;;;;;19.52;11.07;;;;;;;;;;6251558;22;20004;-83
2022/11/18 11:58:47;;;;;;;12.55;6.57;;;;;;;;;;6250519;22;20000;-82
2022/11/18 12:01:19;;;;;;;12.32;6.82;;;;;;;;;;6248558;22;20011;-82
2022/11/18 12:03:45;;;;;;;14.68;7.07;;;;;;;;;;6275559;22;19997;-81
2022/11/18 12:06:11;;;;;;;16.25;7.65;;;;;;;;;;6276932;22;20007;-82
2022/11/18 12:08:40;;;;;;;17.63;9.48;;;;;;;;;;6250096;22;20006;-82
2022/11/18 12:11:13;;;;;;;14.60;8.00;;;;;;;;;;6276731;22;20003;-82
2022/11/18 12:13:39;;;;;;;17.50;7.93;;;;;;;;;;6276324;22;20325;-81
2022/11/18 12:16:25;;;;;;;17.98;8.27;;;;;;;;;;6251349;22;19999;-82
2022/11/18 12:18:56;;;;;;;17.92;7.60;;;;;;;;;;6277995;22;19995;-81
2022/11/18 12:21:45;;;;;;;20.70;8.05;;;;;;;;;;6277377;22;20513;-83
2022/11/18 12:24:17;;;;;;;14.25;7.60;;;;;;;;;;6257515;22;20008;-82
2022/11/18 12:26:47;;;;;;;17.20;7.70;;;;;;;;;;6251931;22;20011;-81
2022/11/18 12:29:16;;;;;;;18.08;7.93;;;;;;;;;;6278496;22;20045;-83
2022/11/18 12:31:42;;;;;;;13.82;8.02;;;;;;;;;;6250778;22;20033;-82
2022/11/18 12:34:27;;;;;;;16.65;7.65;;;;;;;;;;6277427;22;20092;-82
2022/11/18 12:36:53;;;;;;;15.98;7.57;;;;;;;;;;6265789;22;19991;-81
2022/11/18 12:39:26;;;;;;;18.42;6.45;;;;;;;;;;6295383;22;20005;-81
2022/11/18 12:44:38;;;;;;;17.15;6.68;;;;;;;;;;6289429;22;19929;-82
2022/11/18 12:47:05;;;;;;;14.73;6.88;;;;;;;;;;6252455;22;20000;-82
2022/11/18 12:49:31;;;;;;;16.17;6.68;;;;;;;;;;6252697;22;20378;-83
2022/11/18 12:52:01;;;;;;;17.75;7.10;;;;;;;;;;6252277;22;20000;-83
2022/11/18 12:54:38;;;;;;;15.10;7.30;;;;;;;;;;6278907;22;20007;-83
2022/11/18 12:57:22;;;;;;;18.65;7.38;;;;;;;;;;6278599;22;20000;-83
2022/11/18 12:59:48;;;;;;;14.93;7.55;;;;;;;;;;6278134;22;20004;-83
2022/11/18 13:02:30;;;;;;;13.10;5.75;;;;;;;;;;6279578;22;20047;-83
2022/11/18 13:05:10;;;;;;;10.45;5.38;;;;;;;;;;6253102;22;20077;-83
2022/11/18 13:10:29;;;;;;;11.23;5.70;;;;;;;;;;6296774;22;20011;-83
2022/11/18 13:12:55;;;;;;;13.35;6.30;;;;;;;;;;6297611;22;20043;-82
2022/11/18 13:18:26;;;;;;;12.65;5.93;;;;;;;;;;6281162;22;20019;-83
2022/11/18 13:20:57;;;;;;;11.20;5.50;;;;;;;;;;6253440;22;20006;-83
2022/11/18 13:26:39;;;;;;;12.65;6.28;;;;;;;;;;6280839;22;20061;-83
2022/11/18 13:29:18;;;;;;;12.77;5.22;;;;;;;;;;6221468;22;20007;-84
2022/11/18 13:32:03;;;;;;;11.85;7.18;;;;;;;;;;6280470;22;19996;-84
2022/11/18 13:34:30;;;;;;;10.45;5.25;;;;;;;;;;6253202;22;20015;-83
2022/11/18 13:36:58;;;;;;;12.10;5.78;;;;;;;;;;6295717;22;19984;-83
2022/11/18 13:39:25;;;;;;;10.85;5.43;;;;;;;;;;6305135;22;20031;-85
2022/11/18 13:41:59;;;;;;;9.38;5.45;;;;;;;;;;6289497;22;20022;-83
2022/11/18 13:44:26;;;;;;;9.80;4.97;;;;;;;;;;6256425;22;20095;-84
2022/11/18 13:46:55;;;;;;;12.35;5.65;;;;;;;;;;6256980;22;19996;-83
2022/11/18 13:49:23;;;;;;;11.07;4.88;;;;;;;;;;6280769;22;20000;-83
2022/11/18 13:51:50;;;;;;;11.02;5.15;;;;;;;;;;6279915;22;19995;-83
2022/11/18 13:54:22;;;;;;;11.93;5.65;;;;;;;;;;6252266;22;19999;-83
2022/11/18 13:56:49;;;;;;;9.50;4.33;;;;;;;;;;6252310;22;20007;-83
2022/11/18 13:59:19;;;;;;;7.80;4.25;;;;;;;;;;6252654;22;20086;-83
2022/11/18 14:01:46;;;;;;;10.32;4.47;;;;;;;;;;6279123;22;20011;-83
2022/11/18 14:04:26;;;;;;;9.02;4.40;;;;;;;;;;6252804;22;20019;-83
2022/11/18 14:06:52;;;;;;;7.85;4.00;;;;;;;;;;6279447;22;20235;-83
2022/11/18 14:09:28;;;;;;;8.82;4.07;;;;;;;;;;6252403;22;20046;-83
2022/11/18 14:11:57;;;;;;;7.78;3.92;;;;;;;;;;6252113;22;20003;-83
2022/11/18 14:14:37;;;;;;;7.63;4.20;;;;;;;;;;6279124;22;20003;-83
2022/11/18 14:17:05;;;;;;;7.15;3.95;;;;;;;;;;6279136;22;20016;-83
2022/11/18 14:19:31;;;;;;;7.65;4.00;;;;;;;;;;6279208;22;20000;-83
2022/11/18 14:22:05;;;;;;;7.18;3.70;;;;;;;;;;6252374;22;20004;-83
2022/11/18 14:24:31;;;;;;;7.72;3.80;;;;;;;;;;6279276;22;20405;-83
2022/11/18 14:26:57;;;;;;;7.25;3.90;;;;;;;;;;6279539;22;20379;-81
2022/11/18 14:29:23;;;;;;;7.32;3.80;;;;;;;;;;6280195;22;19996;-82
2022/11/18 14:32:08;;;;;;;6.97;3.70;;;;;;;;;;6279925;22;20023;-81
2022/11/18 14:34:34;;;;;;;8.75;4.50;;;;;;;;;;6250574;22;20057;-81
2022/11/18 14:37:02;;;;;;;8.95;4.35;;;;;;;;;;6279053;22;20428;-81
2022/11/18 14:39:29;;;;;;;8.88;5.10;;;;;;;;;;6283974;22;20042;-81
2022/11/18 14:41:56;;;;;;;9.18;5.50;;;;;;;;;;6280083;22;20000;-80
2022/11/18 14:44:23;;;;;;;12.00;7.00;;;;;;;;;;6277882;22;20348;-81
2022/11/18 14:46:59;;;;;;;14.55;7.90;;;;;;;;;;6279550;22;20003;-83
2022/11/18 14:49:26;;;;;;;12.45;7.68;;;;;;;;;;6278909;22;20075;-82
2022/11/18 14:51:53;;;;;;;13.05;8.32;;;;;;;;;;6279075;22;20064;-83
2022/11/18 14:54:20;;;;;;;13.82;8.10;;;;;;;;;;6277212;22;20006;-83
2022/11/18 14:56:47;;;;;;;11.40;6.82;;;;;;;;;;6277671;22;20049;-83
2022/11/18 14:59:14;;;;;;;13.35;8.13;;;;;;;;;;6278110;22;20086;-83